sensor_id;sensor_type;location;lat;lon;timestamp;P1;durP1;ratioP1;P2;durP2;ratioP2
934;SDS011;454;53.254;10.400;2023-05-10T04:02:20;1.02;;;1.02;;
934;SDS011;454;53.254;10.400;2023-05-10T04:04:46;2.40;;;2.28;;
934;SDS011;454;53.254;10.400;2023-05-10T04:07:13;2.08;;;2.08;;
934;SDS011;454;53.254;10.400;2023-05-10T04:09:40;1.77;;;1.67;;
934;SDS011;454;53.254;10.400;2023-05-10T04:12:06;1.50;;;1.50;;
934;SDS011;454;53.254;10.400;2023-05-10T04:14:33;2.13;;;2.03;;
934;SDS011;454;53.254;10.400;2023-05-10T04:17:00;1.98;;;1.88;;
934;SDS011;454;53.254;10.400;2023-05-10T04:19:29;2.42;;;2.33;;
934;SDS011;454;53.254;10.400;2023-05-10T04:21:56;2.67;;;2.47;;
934;SDS011;454;53.254;10.400;2023-05-10T04:24:23;2.40;;;2.20;;
934;SDS011;454;53.254;10.400;2023-05-10T04:26:49;2.67;;;2.50;;
934;SDS011;454;53.254;10.400;2023-05-10T04:29:16;2.00;;;1.73;;
934;SDS011;454;53.254;10.400;2023-05-10T04:31:43;2.00;;;1.90;;
934;SDS011;454;53.254;10.400;2023-05-10T04:34:10;2.70;;;2.60;;
934;SDS011;454;53.254;10.400;2023-05-10T04:36:38;2.60;;;2.58;;
934;SDS011;454;53.254;10.400;2023-05-10T04:39:04;2.40;;;2.30;;
934;SDS011;454;53.254;10.400;2023-05-10T04:41:31;2.10;;;2.00;;
934;SDS011;454;53.254;10.400;2023-05-10T04:43:57;2.30;;;1.97;;
934;SDS011;454;53.254;10.400;2023-05-10T04:46:24;1.83;;;1.73;;
934;SDS011;454;53.254;10.400;2023-05-10T04:48:51;1.13;;;1.13;;
934;SDS011;454;53.254;10.400;2023-05-10T04:51:17;4.30;;;2.00;;
934;SDS011;454;53.254;10.400;2023-05-10T04:53:46;1.73;;;1.63;;
934;SDS011;454;53.254;10.400;2023-05-10T04:56:13;2.17;;;2.03;;
934;SDS011;454;53.254;10.400;2023-05-10T04:58:41;2.37;;;2.27;;
934;SDS011;454;53.254;10.400;2023-05-10T05:01:07;1.00;;;1.00;;
934;SDS011;454;53.254;10.400;2023-05-10T05:03:35;1.90;;;1.90;;
934;SDS011;454;53.254;10.400;2023-05-10T05:06:02;1.60;;;1.53;;
934;SDS011;454;53.254;10.400;2023-05-10T05:08:29;2.10;;;1.90;;
934;SDS011;454;53.254;10.400;2023-05-10T05:10:57;1.70;;;1.70;;
934;SDS011;454;53.254;10.400;2023-05-10T05:13:24;2.70;;;2.47;;
934;SDS011;454;53.254;10.400;2023-05-10T05:15:51;2.00;;;1.87;;
934;SDS011;454;53.254;10.400;2023-05-10T05:18:18;1.73;;;1.63;;
934;SDS011;454;53.254;10.400;2023-05-10T05:20:45;2.10;;;2.00;;
934;SDS011;454;53.254;10.400;2023-05-10T05:23:11;2.23;;;2.13;;
934;SDS011;454;53.254;10.400;2023-05-10T05:25:38;2.17;;;2.07;;
934;SDS011;454;53.254;10.400;2023-05-10T05:28:06;1.90;;;1.90;;
934;SDS011;454;53.254;10.400;2023-05-10T05:30:32;2.73;;;2.60;;
934;SDS011;454;53.254;10.400;2023-05-10T05:32:59;2.50;;;2.30;;
934;SDS011;454;53.254;10.400;2023-05-10T05:35:26;3.20;;;2.00;;
934;SDS011;454;53.254;10.400;2023-05-10T05:37:52;1.40;;;1.40;;
934;SDS011;454;53.254;10.400;2023-05-10T05:40:19;4.23;;;3.07;;
934;SDS011;454;53.254;10.400;2023-05-10T05:42:46;1.40;;;1.40;;
934;SDS011;454;53.254;10.400;2023-05-10T05:45:14;1.57;;;1.50;;
934;SDS011;454;53.254;10.400;2023-05-10T05:47:41;2.43;;;2.30;;
934;SDS011;454;53.254;10.400;2023-05-10T05:50:08;1.53;;;1.50;;
934;SDS011;454;53.254;10.400;2023-05-10T05:52:35;1.83;;;1.73;;
934;SDS011;454;53.254;10.400;2023-05-10T05:55:02;0.73;;;0.73;;
934;SDS011;454;53.254;10.400;2023-05-10T05:57:29;1.70;;;1.70;;
934;SDS011;454;53.254;10.400;2023-05-10T05:59:56;1.50;;;1.40;;
934;SDS011;454;53.254;10.400;2023-05-10T06:02:24;1.40;;;1.40;;
934;SDS011;454;53.254;10.400;2023-05-10T06:04:51;2.50;;;2.50;;
934;SDS011;454;53.254;10.400;2023-05-10T06:07:17;2.80;;;2.70;;
934;SDS011;454;53.254;10.400;2023-05-10T06:09:44;2.50;;;1.53;;
934;SDS011;454;53.254;10.400;2023-05-10T06:12:11;2.10;;;2.10;;
934;SDS011;454;53.254;10.400;2023-05-10T06:14:37;2.10;;;2.00;;
934;SDS011;454;53.254;10.400;2023-05-10T06:17:04;1.90;;;1.90;;
934;SDS011;454;53.254;10.400;2023-05-10T06:19:33;2.33;;;2.13;;
934;SDS011;454;53.254;10.400;2023-05-10T06:21:59;2.33;;;2.23;;
934;SDS011;454;53.254;10.400;2023-05-10T06:24:26;2.10;;;2.00;;
934;SDS011;454;53.254;10.400;2023-05-10T06:26:53;1.73;;;1.73;;
934;SDS011;454;53.254;10.400;2023-05-10T06:29:19;1.17;;;1.17;;
934;SDS011;454;53.254;10.400;2023-05-10T06:31:46;2.30;;;2.10;;
934;SDS011;454;53.254;10.400;2023-05-10T06:34:13;2.10;;;1.83;;
934;SDS011;454;53.254;10.400;2023-05-10T06:36:41;1.53;;;1.37;;
934;SDS011;454;53.254;10.400;2023-05-10T06:39:08;1.80;;;1.70;;
934;SDS011;454;53.254;10.400;2023-05-10T06:41:36;2.37;;;1.97;;
934;SDS011;454;53.254;10.400;2023-05-10T06:44:03;2.23;;;2.13;;
934;SDS011;454;53.254;10.400;2023-05-10T06:46:30;1.77;;;1.67;;
934;SDS011;454;53.254;10.400;2023-05-10T06:48:56;2.40;;;2.40;;
934;SDS011;454;53.254;10.400;2023-05-10T06:51:23;1.83;;;1.73;;
934;SDS011;454;53.254;10.400;2023-05-10T06:53:51;2.00;;;1.90;;
934;SDS011;454;53.254;10.400;2023-05-10T06:56:18;2.73;;;2.63;;
934;SDS011;454;53.254;10.400;2023-05-10T06:58:46;1.97;;;1.87;;
934;SDS011;454;53.254;10.400;2023-05-10T07:01:13;1.43;;;1.33;;
934;SDS011;454;53.254;10.400;2023-05-10T07:03:39;2.70;;;2.60;;
934;SDS011;454;53.254;10.400;2023-05-10T07:06:06;1.70;;;1.60;;
934;SDS011;454;53.254;10.400;2023-05-10T07:08:33;1.07;;;1.07;;
934;SDS011;454;53.254;10.400;2023-05-10T07:11:02;1.90;;;1.80;;
934;SDS011;454;53.254;10.400;2023-05-10T07:13:29;1.03;;;1.03;;
934;SDS011;454;53.254;10.400;2023-05-10T07:15:57;2.10;;;2.00;;
934;SDS011;454;53.254;10.400;2023-05-10T07:18:23;2.03;;;1.83;;
934;SDS011;454;53.254;10.400;2023-05-10T07:20:50;2.23;;;2.13;;
934;SDS011;454;53.254;10.400;2023-05-10T07:23:17;2.03;;;2.00;;
934;SDS011;454;53.254;10.400;2023-05-10T07:25:44;2.50;;;2.40;;
934;SDS011;454;53.254;10.400;2023-05-10T07:28:13;2.23;;;2.13;;
934;SDS011;454;53.254;10.400;2023-05-10T07:30:40;2.17;;;1.97;;
934;SDS011;454;53.254;10.400;2023-05-10T07:33:06;1.90;;;1.80;;
934;SDS011;454;53.254;10.400;2023-05-10T07:35:34;3.60;;;1.27;;
934;SDS011;454;53.254;10.400;2023-05-10T07:38:01;2.17;;;2.10;;
934;SDS011;454;53.254;10.400;2023-05-10T07:40:28;1.80;;;1.80;;
934;SDS011;454;53.254;10.400;2023-05-10T07:42:55;2.20;;;2.10;;
934;SDS011;454;53.254;10.400;2023-05-10T07:45:23;1.60;;;1.50;;
934;SDS011;454;53.254;10.400;2023-05-10T07:47:50;4.63;;;1.93;;
934;SDS011;454;53.254;10.400;2023-05-10T07:50:16;2.67;;;2.47;;
934;SDS011;454;53.254;10.400;2023-05-10T07:52:43;1.70;;;1.70;;
934;SDS011;454;53.254;10.400;2023-05-10T07:55:10;1.87;;;1.77;;
934;SDS011;454;53.254;10.400;2023-05-10T07:57:37;1.17;;;1.17;;
934;SDS011;454;53.254;10.400;2023-05-10T08:00:04;1.73;;;1.73;;
934;SDS011;454;53.254;10.400;2023-05-10T08:02:34;2.20;;;2.07;;
934;SDS011;454;53.254;10.400;2023-05-10T08:05:01;2.83;;;2.60;;
934;SDS011;454;53.254;10.400;2023-05-10T08:07:28;2.30;;;2.30;;
934;SDS011;454;53.254;10.400;2023-05-10T08:09:54;1.47;;;1.47;;
934;SDS011;454;53.254;10.400;2023-05-10T08:12:21;1.90;;;1.90;;
934;SDS011;454;53.254;10.400;2023-05-10T08:14:48;2.67;;;2.47;;
934;SDS011;454;53.254;10.400;2023-05-10T08:17:14;1.77;;;1.70;;
934;SDS011;454;53.254;10.400;2023-05-10T08:19:42;1.90;;;1.90;;
934;SDS011;454;53.254;10.400;2023-05-10T08:22:09;2.30;;;2.20;;
934;SDS011;454;53.254;10.400;2023-05-10T08:24:36;2.70;;;2.03;;
934;SDS011;454;53.254;10.400;2023-05-10T08:27:03;1.80;;;1.80;;
934;SDS011;454;53.254;10.400;2023-05-10T08:29:30;2.73;;;2.63;;
934;SDS011;454;53.254;10.400;2023-05-10T08:31:57;2.33;;;2.23;;
934;SDS011;454;53.254;10.400;2023-05-10T08:34:23;2.20;;;2.10;;
934;SDS011;454;53.254;10.400;2023-05-10T08:36:52;4.40;;;3.17;;
934;SDS011;454;53.254;10.400;2023-05-10T08:39:18;2.33;;;2.20;;
934;SDS011;454;53.254;10.400;2023-05-10T08:41:45;1.40;;;1.40;;
934;SDS011;454;53.254;10.400;2023-05-10T08:44:14;2.03;;;2.03;;
934;SDS011;454;53.254;10.400;2023-05-10T08:46:43;3.80;;;2.97;;
934;SDS011;454;53.254;10.400;2023-05-10T08:49:13;2.60;;;2.40;;
934;SDS011;454;53.254;10.400;2023-05-10T08:51:43;2.93;;;2.73;;
934;SDS011;454;53.254;10.400;2023-05-10T08:54:17;4.60;;;3.07;;
934;SDS011;454;53.254;10.400;2023-05-10T08:56:44;1.60;;;1.60;;
934;SDS011;454;53.254;10.400;2023-05-10T08:59:11;1.60;;;1.50;;
934;SDS011;454;53.254;10.400;2023-05-10T09:01:39;1.93;;;1.83;;
934;SDS011;454;53.254;10.400;2023-05-10T09:04:06;2.03;;;1.93;;
934;SDS011;454;53.254;10.400;2023-05-10T09:06:33;3.03;;;2.47;;
934;SDS011;454;53.254;10.400;2023-05-10T09:09:00;1.70;;;1.70;;
934;SDS011;454;53.254;10.400;2023-05-10T09:11:29;2.10;;;2.00;;
934;SDS011;454;53.254;10.400;2023-05-10T09:13:56;1.77;;;1.77;;
934;SDS011;454;53.254;10.400;2023-05-10T09:16:23;1.97;;;1.87;;
934;SDS011;454;53.254;10.400;2023-05-10T09:18:50;2.03;;;2.03;;
934;SDS011;454;53.254;10.400;2023-05-10T09:21:17;1.70;;;1.70;;
934;SDS011;454;53.254;10.400;2023-05-10T09:23:45;2.83;;;2.63;;
934;SDS011;454;53.254;10.400;2023-05-10T09:26:12;2.10;;;2.03;;
934;SDS011;454;53.254;10.400;2023-05-10T09:28:50;3.10;;;2.13;;
934;SDS011;454;53.254;10.400;2023-05-10T09:31:19;7.13;;;2.07;;
934;SDS011;454;53.254;10.400;2023-05-10T09:33:45;3.50;;;2.63;;
934;SDS011;454;53.254;10.400;2023-05-10T09:36:13;2.17;;;1.93;;
934;SDS011;454;53.254;10.400;2023-05-10T09:38:47;2.07;;;1.97;;
934;SDS011;454;53.254;10.400;2023-05-10T09:41:18;2.27;;;2.17;;
934;SDS011;454;53.254;10.400;2023-05-10T09:43:45;1.83;;;1.73;;
934;SDS011;454;53.254;10.400;2023-05-10T09:46:13;2.13;;;2.03;;
934;SDS011;454;53.254;10.400;2023-05-10T09:48:41;2.40;;;2.03;;
934;SDS011;454;53.254;10.400;2023-05-10T09:51:09;3.40;;;2.20;;
934;SDS011;454;53.254;10.400;2023-05-10T09:53:36;2.07;;;1.97;;
934;SDS011;454;53.254;10.400;2023-05-10T09:56:03;1.90;;;1.80;;
934;SDS011;454;53.254;10.400;2023-05-10T09:58:29;3.13;;;2.83;;
934;SDS011;454;53.254;10.400;2023-05-10T10:00:56;2.77;;;2.57;;
934;SDS011;454;53.254;10.400;2023-05-10T10:03:25;2.60;;;2.50;;
934;SDS011;454;53.254;10.400;2023-05-10T10:05:51;3.30;;;3.00;;
934;SDS011;454;53.254;10.400;2023-05-10T10:08:20;2.97;;;2.80;;
934;SDS011;454;53.254;10.400;2023-05-10T10:10:48;2.27;;;2.20;;
934;SDS011;454;53.254;10.400;2023-05-10T10:13:16;2.60;;;2.50;;
934;SDS011;454;53.254;10.400;2023-05-10T10:15:43;2.00;;;1.63;;
934;SDS011;454;53.254;10.400;2023-05-10T10:18:12;3.50;;;3.20;;
934;SDS011;454;53.254;10.400;2023-05-10T10:20:41;2.73;;;2.40;;
934;SDS011;454;53.254;10.400;2023-05-10T10:23:08;2.93;;;2.60;;
934;SDS011;454;53.254;10.400;2023-05-10T10:25:35;2.60;;;2.50;;
934;SDS011;454;53.254;10.400;2023-05-10T10:28:07;2.23;;;2.10;;
934;SDS011;454;53.254;10.400;2023-05-10T10:30:43;3.47;;;3.27;;
934;SDS011;454;53.254;10.400;2023-05-10T10:33:28;2.63;;;2.43;;
934;SDS011;454;53.254;10.400;2023-05-10T10:36:03;3.13;;;2.90;;
934;SDS011;454;53.254;10.400;2023-05-10T10:41:29;2.73;;;2.53;;
934;SDS011;454;53.254;10.400;2023-05-10T10:46:58;3.13;;;2.90;;
934;SDS011;454;53.254;10.400;2023-05-10T10:49:26;3.40;;;3.07;;
934;SDS011;454;53.254;10.400;2023-05-10T10:54:49;4.10;;;3.73;;
934;SDS011;454;53.254;10.400;2023-05-10T10:57:17;5.40;;;4.90;;
934;SDS011;454;53.254;10.400;2023-05-10T10:59:46;8.60;;;5.07;;
934;SDS011;454;53.254;10.400;2023-05-10T11:11:04;7.50;;;5.10;;
934;SDS011;454;53.254;10.400;2023-05-10T11:13:37;4.10;;;3.90;;
934;SDS011;454;53.254;10.400;2023-05-10T11:16:12;5.17;;;4.87;;
934;SDS011;454;53.254;10.400;2023-05-10T11:18:40;5.90;;;4.27;;
934;SDS011;454;53.254;10.400;2023-05-10T11:21:18;6.70;;;5.77;;
934;SDS011;454;53.254;10.400;2023-05-10T11:23:48;7.00;;;5.57;;
934;SDS011;454;53.254;10.400;2023-05-10T11:26:16;4.00;;;3.80;;
934;SDS011;454;53.254;10.400;2023-05-10T11:28:44;4.97;;;4.37;;
934;SDS011;454;53.254;10.400;2023-05-10T11:31:13;4.10;;;3.80;;
934;SDS011;454;53.254;10.400;2023-05-10T11:33:42;5.13;;;4.73;;
934;SDS011;454;53.254;10.400;2023-05-10T11:36:10;2.80;;;2.63;;
934;SDS011;454;53.254;10.400;2023-05-10T11:38:37;4.97;;;4.47;;
934;SDS011;454;53.254;10.400;2023-05-10T11:41:05;5.70;;;5.20;;
934;SDS011;454;53.254;10.400;2023-05-10T11:43:34;5.70;;;3.97;;
934;SDS011;454;53.254;10.400;2023-05-10T11:46:03;4.37;;;4.17;;
934;SDS011;454;53.254;10.400;2023-05-10T11:48:30;3.53;;;3.20;;
934;SDS011;454;53.254;10.400;2023-05-10T11:50:57;4.50;;;4.10;;
934;SDS011;454;53.254;10.400;2023-05-10T11:53:25;5.37;;;4.37;;
934;SDS011;454;53.254;10.400;2023-05-10T11:55:52;5.03;;;4.60;;
934;SDS011;454;53.254;10.400;2023-05-10T11:58:20;4.40;;;4.10;;
934;SDS011;454;53.254;10.400;2023-05-10T12:00:48;9.50;;;5.10;;
934;SDS011;454;53.254;10.400;2023-05-10T12:03:16;5.57;;;3.40;;
934;SDS011;454;53.254;10.400;2023-05-10T12:05:43;3.00;;;2.80;;
934;SDS011;454;53.254;10.400;2023-05-10T12:08:13;5.27;;;4.77;;
934;SDS011;454;53.254;10.400;2023-05-10T12:10:41;6.57;;;4.27;;
934;SDS011;454;53.254;10.400;2023-05-10T12:13:10;4.33;;;3.93;;
934;SDS011;454;53.254;10.400;2023-05-10T12:15:40;6.53;;;5.67;;
934;SDS011;454;53.254;10.400;2023-05-10T12:18:07;4.60;;;4.23;;
934;SDS011;454;53.254;10.400;2023-05-10T12:20:35;4.77;;;4.37;;
934;SDS011;454;53.254;10.400;2023-05-10T12:23:02;5.83;;;4.27;;
934;SDS011;454;53.254;10.400;2023-05-10T12:25:31;4.93;;;4.53;;
934;SDS011;454;53.254;10.400;2023-05-10T12:27:59;5.37;;;4.60;;
934;SDS011;454;53.254;10.400;2023-05-10T12:30:29;5.97;;;5.10;;
934;SDS011;454;53.254;10.400;2023-05-10T12:33:00;4.93;;;4.53;;
934;SDS011;454;53.254;10.400;2023-05-10T12:35:29;4.90;;;4.47;;
934;SDS011;454;53.254;10.400;2023-05-10T12:37:56;4.93;;;4.53;;
934;SDS011;454;53.254;10.400;2023-05-10T12:40:23;9.20;;;5.20;;
934;SDS011;454;53.254;10.400;2023-05-10T12:42:50;5.70;;;4.90;;
934;SDS011;454;53.254;10.400;2023-05-10T12:45:17;3.87;;;3.50;;
934;SDS011;454;53.254;10.400;2023-05-10T12:47:44;5.07;;;4.50;;
934;SDS011;454;53.254;10.400;2023-05-10T12:50:12;5.60;;;4.63;;
934;SDS011;454;53.254;10.400;2023-05-10T12:52:39;4.53;;;4.23;;
934;SDS011;454;53.254;10.400;2023-05-10T12:55:05;3.90;;;3.60;;
934;SDS011;454;53.254;10.400;2023-05-10T12:57:33;3.70;;;3.40;;
934;SDS011;454;53.254;10.400;2023-05-10T12:59:59;4.27;;;3.97;;
934;SDS011;454;53.254;10.400;2023-05-10T13:02:26;8.83;;;7.10;;
934;SDS011;454;53.254;10.400;2023-05-10T13:04:53;4.97;;;4.30;;
934;SDS011;454;53.254;10.400;2023-05-10T13:07:21;3.73;;;3.40;;
934;SDS011;454;53.254;10.400;2023-05-10T13:09:47;2.67;;;2.50;;
934;SDS011;454;53.254;10.400;2023-05-10T13:12:14;2.83;;;2.63;;
934;SDS011;454;53.254;10.400;2023-05-10T13:14:40;4.03;;;3.57;;
934;SDS011;454;53.254;10.400;2023-05-10T13:17:07;4.60;;;4.20;;
934;SDS011;454;53.254;10.400;2023-05-10T13:19:34;5.00;;;4.50;;
934;SDS011;454;53.254;10.400;2023-05-10T13:22:01;3.93;;;3.53;;
934;SDS011;454;53.254;10.400;2023-05-10T13:24:30;4.33;;;3.97;;
934;SDS011;454;53.254;10.400;2023-05-10T13:26:56;5.40;;;5.10;;
934;SDS011;454;53.254;10.400;2023-05-10T13:29:23;3.50;;;3.40;;
934;SDS011;454;53.254;10.400;2023-05-10T13:31:50;3.70;;;3.50;;
934;SDS011;454;53.254;10.400;2023-05-10T13:34:17;10.43;;;4.17;;
934;SDS011;454;53.254;10.400;2023-05-10T13:36:45;4.00;;;3.70;;
934;SDS011;454;53.254;10.400;2023-05-10T13:39:12;3.73;;;3.53;;
934;SDS011;454;53.254;10.400;2023-05-10T13:41:40;4.63;;;4.23;;
934;SDS011;454;53.254;10.400;2023-05-10T13:44:07;4.10;;;3.80;;
934;SDS011;454;53.254;10.400;2023-05-10T13:46:33;4.23;;;3.93;;
934;SDS011;454;53.254;10.400;2023-05-10T13:49:00;3.80;;;3.50;;
934;SDS011;454;53.254;10.400;2023-05-10T13:51:27;4.57;;;4.27;;
934;SDS011;454;53.254;10.400;2023-05-10T13:53:53;2.80;;;2.60;;
934;SDS011;454;53.254;10.400;2023-05-10T13:56:20;2.20;;;2.10;;
934;SDS011;454;53.254;10.400;2023-05-10T13:58:48;2.50;;;2.50;;
934;SDS011;454;53.254;10.400;2023-05-10T14:01:15;3.53;;;3.33;;
934;SDS011;454;53.254;10.400;2023-05-10T14:03:41;2.70;;;2.60;;
934;SDS011;454;53.254;10.400;2023-05-10T14:06:08;1.77;;;1.77;;
934;SDS011;454;53.254;10.400;2023-05-10T14:08:35;2.20;;;2.10;;
934;SDS011;454;53.254;10.400;2023-05-10T14:11:01;3.70;;;3.30;;
934;SDS011;454;53.254;10.400;2023-05-10T14:13:28;2.63;;;2.17;;
934;SDS011;454;53.254;10.400;2023-05-10T14:15:56;2.77;;;2.63;;
934;SDS011;454;53.254;10.400;2023-05-10T14:18:25;2.27;;;2.17;;
934;SDS011;454;53.254;10.400;2023-05-10T14:20:52;4.50;;;2.63;;
934;SDS011;454;53.254;10.400;2023-05-10T14:23:18;1.70;;;1.70;;
934;SDS011;454;53.254;10.400;2023-05-10T14:25:48;3.17;;;2.97;;
934;SDS011;454;53.254;10.400;2023-05-10T14:28:15;3.30;;;3.17;;
934;SDS011;454;53.254;10.400;2023-05-10T14:30:43;1.97;;;1.97;;
934;SDS011;454;53.254;10.400;2023-05-10T14:33:11;1.93;;;1.83;;
934;SDS011;454;53.254;10.400;2023-05-10T14:35:38;2.03;;;1.97;;
934;SDS011;454;53.254;10.400;2023-05-10T14:38:05;1.23;;;1.23;;
934;SDS011;454;53.254;10.400;2023-05-10T14:40:31;1.77;;;1.67;;
934;SDS011;454;53.254;10.400;2023-05-10T14:42:58;2.20;;;2.10;;
934;SDS011;454;53.254;10.400;2023-05-10T14:45:25;2.40;;;2.23;;
934;SDS011;454;53.254;10.400;2023-05-10T14:47:52;2.23;;;2.13;;
934;SDS011;454;53.254;10.400;2023-05-10T14:50:20;1.40;;;1.40;;
934;SDS011;454;53.254;10.400;2023-05-10T14:52:46;1.67;;;1.67;;
934;SDS011;454;53.254;10.400;2023-05-10T14:55:14;1.33;;;1.33;;
934;SDS011;454;53.254;10.400;2023-05-10T14:57:41;1.90;;;1.50;;
934;SDS011;454;53.254;10.400;2023-05-10T15:00:09;1.80;;;1.70;;
934;SDS011;454;53.254;10.400;2023-05-10T15:02:37;1.53;;;1.43;;
934;SDS011;454;53.254;10.400;2023-05-10T15:05:03;1.73;;;1.70;;
934;SDS011;454;53.254;10.400;2023-05-10T15:07:32;2.07;;;1.97;;
934;SDS011;454;53.254;10.400;2023-05-10T15:09:59;1.57;;;1.47;;
934;SDS011;454;53.254;10.400;2023-05-10T15:12:25;1.70;;;1.70;;
934;SDS011;454;53.254;10.400;2023-05-10T15:14:52;1.30;;;1.30;;
934;SDS011;454;53.254;10.400;2023-05-10T15:17:19;1.60;;;1.53;;
934;SDS011;454;53.254;10.400;2023-05-10T15:19:45;15.93;;;10.40;;
934;SDS011;454;53.254;10.400;2023-05-10T15:22:14;12.70;;;8.70;;
934;SDS011;454;53.254;10.400;2023-05-10T15:24:42;4.90;;;3.77;;
934;SDS011;454;53.254;10.400;2023-05-10T15:27:08;7.37;;;6.03;;
934;SDS011;454;53.254;10.400;2023-05-10T15:29:35;2.10;;;1.97;;
934;SDS011;454;53.254;10.400;2023-05-10T15:32:02;2.40;;;2.30;;
934;SDS011;454;53.254;10.400;2023-05-10T15:34:28;1.90;;;1.80;;
934;SDS011;454;53.254;10.400;2023-05-10T15:36:55;1.47;;;1.47;;
934;SDS011;454;53.254;10.400;2023-05-10T15:39:22;2.33;;;2.33;;
934;SDS011;454;53.254;10.400;2023-05-10T15:41:50;1.97;;;1.87;;
934;SDS011;454;53.254;10.400;2023-05-10T15:44:17;2.37;;;2.23;;
934;SDS011;454;53.254;10.400;2023-05-10T15:46:43;1.57;;;1.50;;
934;SDS011;454;53.254;10.400;2023-05-10T15:49:10;1.43;;;1.43;;
934;SDS011;454;53.254;10.400;2023-05-10T15:51:37;2.27;;;2.03;;
934;SDS011;454;53.254;10.400;2023-05-10T15:54:04;1.93;;;1.93;;
934;SDS011;454;53.254;10.400;2023-05-10T15:56:31;1.50;;;1.50;;
934;SDS011;454;53.254;10.400;2023-05-10T15:59:00;1.53;;;1.53;;
934;SDS011;454;53.254;10.400;2023-05-10T16:01:27;1.70;;;1.60;;
934;SDS011;454;53.254;10.400;2023-05-10T16:03:54;1.47;;;1.47;;
934;SDS011;454;53.254;10.400;2023-05-10T16:06:21;1.20;;;1.20;;
934;SDS011;454;53.254;10.400;2023-05-10T16:08:48;0.90;;;0.90;;
934;SDS011;454;53.254;10.400;2023-05-10T16:11:15;1.37;;;1.37;;
934;SDS011;454;53.254;10.400;2023-05-10T16:13:41;1.10;;;1.10;;
934;SDS011;454;53.254;10.400;2023-05-10T16:16:09;1.27;;;1.27;;
934;SDS011;454;53.254;10.400;2023-05-10T16:18:36;1.60;;;1.40;;
934;SDS011;454;53.254;10.400;2023-05-10T16:21:03;1.43;;;1.43;;
934;SDS011;454;53.254;10.400;2023-05-10T16:23:30;1.30;;;1.20;;
934;SDS011;454;53.254;10.400;2023-05-10T16:25:56;1.63;;;1.63;;
934;SDS011;454;53.254;10.400;2023-05-10T16:28:23;1.43;;;1.43;;
934;SDS011;454;53.254;10.400;2023-05-10T16:30:50;1.23;;;1.23;;
934;SDS011;454;53.254;10.400;2023-05-10T16:33:18;1.80;;;1.80;;
934;SDS011;454;53.254;10.400;2023-05-10T16:35:44;1.90;;;1.90;;
934;SDS011;454;53.254;10.400;2023-05-10T16:38:11;1.77;;;1.70;;
934;SDS011;454;53.254;10.400;2023-05-10T16:40:39;2.10;;;2.10;;
934;SDS011;454;53.254;10.400;2023-05-10T16:43:05;1.70;;;1.60;;
934;SDS011;454;53.254;10.400;2023-05-10T16:45:32;2.40;;;2.40;;
934;SDS011;454;53.254;10.400;2023-05-10T16:47:59;3.20;;;3.00;;
934;SDS011;454;53.254;10.400;2023-05-10T16:50:27;2.43;;;2.33;;
934;SDS011;454;53.254;10.400;2023-05-10T16:52:54;1.70;;;1.33;;
934;SDS011;454;53.254;10.400;2023-05-10T16:55:20;1.30;;;1.30;;
934;SDS011;454;53.254;10.400;2023-05-10T16:57:47;1.80;;;1.70;;
934;SDS011;454;53.254;10.400;2023-05-10T17:00:14;1.20;;;1.20;;
934;SDS011;454;53.254;10.400;2023-05-10T17:02:42;2.03;;;1.93;;
934;SDS011;454;53.254;10.400;2023-05-10T17:05:08;1.60;;;1.60;;
934;SDS011;454;53.254;10.400;2023-05-10T17:07:37;2.60;;;1.03;;
934;SDS011;454;53.254;10.400;2023-05-10T17:10:04;0.93;;;0.93;;
934;SDS011;454;53.254;10.400;2023-05-10T17:12:31;1.17;;;1.17;;
934;SDS011;454;53.254;10.400;2023-05-10T17:14:58;1.50;;;1.50;;
934;SDS011;454;53.254;10.400;2023-05-10T17:17:24;1.40;;;1.30;;
934;SDS011;454;53.254;10.400;2023-05-10T17:19:51;1.80;;;0.90;;
934;SDS011;454;53.254;10.400;2023-05-10T17:22:18;1.53;;;1.43;;
934;SDS011;454;53.254;10.400;2023-05-10T17:24:46;2.10;;;1.50;;
934;SDS011;454;53.254;10.400;2023-05-10T17:27:13;1.20;;;1.20;;
934;SDS011;454;53.254;10.400;2023-05-10T17:29:40;1.57;;;1.47;;
934;SDS011;454;53.254;10.400;2023-05-10T17:32:07;1.23;;;1.23;;
934;SDS011;454;53.254;10.400;2023-05-10T17:34:34;0.83;;;0.83;;
934;SDS011;454;53.254;10.400;2023-05-10T17:37:01;0.60;;;0.60;;
934;SDS011;454;53.254;10.400;2023-05-10T17:39:27;1.50;;;1.50;;
934;SDS011;454;53.254;10.400;2023-05-10T17:41:56;0.90;;;0.90;;
934;SDS011;454;53.254;10.400;2023-05-10T17:44:22;1.80;;;1.80;;
934;SDS011;454;53.254;10.400;2023-05-10T17:46:49;1.60;;;1.60;;
934;SDS011;454;53.254;10.400;2023-05-10T17:49:16;0.90;;;0.90;;
934;SDS011;454;53.254;10.400;2023-05-10T17:51:43;1.30;;;1.30;;
934;SDS011;454;53.254;10.400;2023-05-10T17:54:12;2.50;;;2.40;;
934;SDS011;454;53.254;10.400;2023-05-10T17:56:38;3.00;;;2.80;;
934;SDS011;454;53.254;10.400;2023-05-10T17:59:06;1.80;;;1.80;;
934;SDS011;454;53.254;10.400;2023-05-10T18:01:33;1.80;;;1.70;;
934;SDS011;454;53.254;10.400;2023-05-10T18:04:00;1.17;;;1.17;;
934;SDS011;454;53.254;10.400;2023-05-10T18:06:26;1.03;;;1.03;;
934;SDS011;454;53.254;10.400;2023-05-10T18:08:53;2.20;;;2.10;;
934;SDS011;454;53.254;10.400;2023-05-10T18:11:20;1.27;;;1.20;;
934;SDS011;454;53.254;10.400;2023-05-10T18:13:47;2.17;;;2.03;;
934;SDS011;454;53.254;10.400;2023-05-10T18:16:15;2.50;;;2.30;;
934;SDS011;454;53.254;10.400;2023-05-10T18:18:43;2.00;;;1.90;;
934;SDS011;454;53.254;10.400;2023-05-10T18:21:10;2.70;;;2.50;;
934;SDS011;454;53.254;10.400;2023-05-10T18:23:36;2.50;;;2.30;;
934;SDS011;454;53.254;10.400;2023-05-10T18:26:03;2.40;;;2.30;;
934;SDS011;454;53.254;10.400;2023-05-10T18:28:30;1.83;;;1.73;;
934;SDS011;454;53.254;10.400;2023-05-10T18:30:56;2.10;;;2.10;;
934;SDS011;454;53.254;10.400;2023-05-10T18:33:24;2.93;;;2.73;;
934;SDS011;454;53.254;10.400;2023-05-10T18:35:51;1.20;;;1.20;;
934;SDS011;454;53.254;10.400;2023-05-10T18:38:18;1.47;;;1.37;;
934;SDS011;454;53.254;10.400;2023-05-10T18:40:45;0.90;;;0.90;;
934;SDS011;454;53.254;10.400;2023-05-10T18:43:11;1.10;;;1.10;;
934;SDS011;454;53.254;10.400;2023-05-10T18:45:38;0.50;;;0.50;;
934;SDS011;454;53.254;10.400;2023-05-10T18:48:05;0.47;;;0.47;;
934;SDS011;454;53.254;10.400;2023-05-10T18:50:33;1.17;;;1.17;;
934;SDS011;454;53.254;10.400;2023-05-10T18:53:00;0.60;;;0.60;;
934;SDS011;454;53.254;10.400;2023-05-10T18:55:27;1.77;;;1.67;;
934;SDS011;454;53.254;10.400;2023-05-10T18:57:54;1.40;;;1.00;;
934;SDS011;454;53.254;10.400;2023-05-10T19:00:21;0.70;;;0.70;;
934;SDS011;454;53.254;10.400;2023-05-10T19:02:48;1.33;;;1.33;;
934;SDS011;454;53.254;10.400;2023-05-10T19:05:14;0.90;;;0.90;;
934;SDS011;454;53.254;10.400;2023-05-10T19:07:42;1.43;;;1.43;;
934;SDS011;454;53.254;10.400;2023-05-10T19:10:09;1.10;;;1.00;;
934;SDS011;454;53.254;10.400;2023-05-10T19:12:39;1.57;;;1.57;;
934;SDS011;454;53.254;10.400;2023-05-10T19:15:07;0.90;;;0.90;;
934;SDS011;454;53.254;10.400;2023-05-10T19:17:34;1.23;;;1.23;;
934;SDS011;454;53.254;10.400;2023-05-10T19:20:02;1.70;;;1.70;;
934;SDS011;454;53.254;10.400;2023-05-10T19:22:29;0.90;;;0.90;;
934;SDS011;454;53.254;10.400;2023-05-10T19:24:57;1.07;;;1.07;;
934;SDS011;454;53.254;10.400;2023-05-10T19:27:25;1.93;;;1.83;;
934;SDS011;454;53.254;10.400;2023-05-10T19:29:52;1.40;;;1.30;;
934;SDS011;454;53.254;10.400;2023-05-10T19:32:18;1.13;;;1.13;;
934;SDS011;454;53.254;10.400;2023-05-10T19:34:45;2.17;;;2.13;;
934;SDS011;454;53.254;10.400;2023-05-10T19:37:12;3.27;;;2.30;;
934;SDS011;454;53.254;10.400;2023-05-10T19:39:38;1.63;;;1.63;;
934;SDS011;454;53.254;10.400;2023-05-10T19:42:06;2.23;;;2.13;;
934;SDS011;454;53.254;10.400;2023-05-10T19:44:33;2.73;;;2.57;;
934;SDS011;454;53.254;10.400;2023-05-10T19:47:00;3.03;;;2.20;;
934;SDS011;454;53.254;10.400;2023-05-10T19:49:28;2.13;;;2.03;;